createdAt,value
2019-05-26T00:00:34.115Z,63.33
2019-05-26T00:03:08.711Z,62.30
2019-05-26T00:05:42.607Z,66.42
2019-05-26T00:08:14.762Z,62.80
2019-05-26T00:10:46.827Z,60.78
2019-05-26T00:13:18.871Z,62.45
2019-05-26T00:15:53.134Z,60.63
2019-05-26T00:18:25.485Z,62.10
2019-05-26T00:20:57.778Z,57.83
2019-05-26T00:23:31.008Z,68.00
2019-05-26T00:26:03.328Z,60.45
2019-05-26T00:28:38.267Z,61.18
2019-05-26T00:31:10.435Z,58.38
2019-05-26T00:33:43.220Z,58.05
2019-05-26T00:36:15.381Z,65.75
2019-05-26T00:38:47.651Z,50.28
2019-05-26T00:41:21.231Z,58.85
2019-05-26T00:43:53.420Z,59.77
2019-05-26T00:46:25.688Z,55.00
2019-05-26T00:48:58.170Z,58.15
2019-05-26T00:51:30.629Z,58.30
2019-05-26T00:54:02.701Z,64.35
2019-05-26T00:56:34.667Z,55.73
2019-05-26T00:59:07.674Z,54.13
2019-05-26T01:01:40.013Z,63.52
2019-05-26T01:04:12.196Z,63.85
2019-05-26T01:06:44.566Z,65.62
2019-05-26T01:09:17.245Z,66.75
2019-05-26T01:11:50.007Z,63.13
2019-05-26T01:14:22.397Z,60.60
2019-05-26T01:16:56.033Z,55.95
2019-05-26T01:19:28.577Z,61.85
2019-05-26T01:22:01.010Z,60.43
2019-05-26T01:24:33.318Z,53.78
2019-05-26T01:27:05.905Z,58.92
2019-05-26T01:29:38.166Z,53.42
2019-05-26T01:32:10.755Z,55.95
2019-05-26T01:34:43.112Z,71.47
2019-05-26T01:37:15.074Z,53.10
2019-05-26T01:39:47.958Z,55.30
2019-05-26T01:42:20.186Z,63.48
2019-05-26T01:44:52.579Z,54.45
2019-05-26T01:47:25.749Z,57.00
2019-05-26T01:49:59.579Z,79.82
2019-05-26T01:52:33.095Z,65.37
2019-05-26T01:55:08.747Z,61.77
2019-05-26T01:57:41.484Z,57.13
2019-05-26T02:00:15.420Z,64.12
2019-05-26T02:02:48.420Z,67.95
2019-05-26T02:05:21.307Z,69.92
2019-05-26T02:07:53.665Z,78.22
2019-05-26T02:10:27.157Z,73.70
2019-05-26T02:13:00.679Z,80.95
2019-05-26T02:15:36.019Z,82.05
2019-05-26T02:18:08.363Z,80.07
2019-05-26T02:20:41.887Z,77.22
2019-05-26T02:23:14.260Z,90.77
2019-05-26T02:25:46.932Z,96.05
2019-05-26T02:28:21.195Z,97.95
2019-05-26T02:30:54.046Z,103.47
2019-05-26T02:33:26.623Z,105.17
2019-05-26T02:35:59.190Z,96.55
2019-05-26T02:38:31.546Z,111.42
2019-05-26T02:41:05.764Z,103.05
2019-05-26T02:43:38.044Z,102.82
2019-05-26T02:46:10.316Z,92.42
2019-05-26T02:48:42.676Z,97.25
2019-05-26T02:51:14.855Z,97.57
2019-05-26T02:53:48.044Z,96.57
2019-05-26T02:56:21.315Z,88.80
2019-05-26T02:58:53.598Z,92.22
2019-05-26T03:01:27.802Z,79.03
2019-05-26T03:03:59.734Z,80.42
2019-05-26T03:06:34.585Z,73.10
2019-05-26T03:09:22.037Z,80.00
2019-05-26T03:11:41.570Z,85.77
2019-05-26T03:14:13.757Z,87.25
2019-05-26T03:16:47.717Z,79.97
2019-05-26T03:19:21.604Z,92.22
2019-05-26T03:21:53.683Z,85.40
2019-05-26T03:24:25.495Z,89.85
2019-05-26T03:26:57.894Z,80.28
2019-05-26T03:29:30.043Z,86.70
2019-05-26T03:32:04.093Z,89.92
2019-05-26T03:34:36.440Z,90.15
2019-05-26T03:37:08.692Z,88.58
2019-05-26T03:39:45.470Z,93.45
2019-05-26T03:42:14.681Z,87.47
2019-05-26T03:45:02.824Z,91.37
2019-05-26T03:47:34.876Z,96.50
2019-05-26T03:50:08.061Z,98.90
2019-05-26T03:52:40.556Z,101.82
2019-05-26T03:55:12.911Z,100.90
2019-05-26T03:57:45.014Z,103.10
2019-05-26T04:00:18.385Z,97.02
2019-05-26T04:02:50.950Z,95.67
2019-05-26T04:05:23.034Z,89.85
2019-05-26T04:07:55.297Z,88.10
2019-05-26T04:10:27.577Z,82.60
2019-05-26T04:12:59.764Z,75.15
2019-05-26T04:15:33.479Z,69.32
2019-05-26T04:18:07.319Z,72.00
2019-05-26T04:20:39.716Z,59.95
2019-05-26T04:23:11.758Z,61.77
2019-05-26T04:25:44.127Z,54.30
2019-05-26T04:28:18.208Z,46.13
2019-05-26T04:30:50.224Z,44.75
2019-05-26T04:33:22.270Z,41.13
2019-05-26T04:35:54.542Z,41.28
2019-05-26T04:38:26.730Z,34.45
2019-05-26T04:40:58.895Z,29.63
2019-05-26T04:43:31.154Z,23.55
2019-05-26T04:46:03.443Z,27.73
2019-05-26T04:48:35.672Z,24.50
2019-05-26T04:51:08.094Z,28.92
2019-05-26T04:53:40.930Z,25.53
2019-05-26T04:56:13.023Z,21.02
2019-05-26T04:58:45.089Z,20.32
2019-05-26T05:01:18.803Z,20.75
2019-05-26T05:03:51.036Z,27.37
2019-05-26T05:06:23.330Z,25.00
2019-05-26T05:08:56.619Z,18.92
2019-05-26T05:11:28.874Z,19.73
2019-05-26T05:14:01.047Z,18.95
2019-05-26T05:16:33.126Z,16.55
2019-05-26T05:19:05.292Z,14.45
2019-05-26T05:21:37.333Z,13.68
2019-05-26T05:24:09.615Z,10.63
2019-05-26T05:26:41.797Z,11.83
2019-05-26T05:29:14.553Z,11.57
2019-05-26T05:31:47.197Z,10.20
2019-05-26T05:34:19.324Z,10.63
2019-05-26T05:36:51.383Z,10.82
2019-05-26T05:39:23.533Z,10.50
2019-05-26T05:41:56.771Z,8.65
2019-05-26T05:44:30.992Z,16.77
2019-05-26T05:47:06.193Z,10.88
2019-05-26T05:49:38.316Z,10.93
2019-05-26T05:52:10.528Z,11.63
2019-05-26T05:54:42.844Z,13.75
2019-05-26T05:57:15.170Z,9.60
2019-05-26T05:59:48.975Z,11.43
2019-05-26T06:02:20.977Z,20.35
2019-05-26T06:04:53.608Z,10.78
2019-05-26T06:07:26.725Z,11.97
2019-05-26T06:10:00.885Z,10.03
2019-05-26T06:12:32.849Z,10.53
2019-05-26T06:18:46.455Z,11.33
2019-05-26T06:21:20.460Z,11.18
2019-05-26T06:23:56.242Z,10.83
2019-05-26T06:26:33.849Z,9.08
2019-05-26T06:29:07.831Z,9.08
2019-05-26T06:32:00.080Z,13.45
2019-05-26T06:34:32.710Z,13.68
2019-05-26T06:37:04.900Z,10.38
2019-05-26T06:39:37.980Z,9.90
2019-05-26T06:42:12.891Z,9.60
2019-05-26T06:44:53.017Z,11.10
2019-05-26T06:47:17.668Z,9.15
2019-05-26T06:49:50.030Z,13.50
2019-05-26T06:52:22.500Z,9.65
2019-05-26T06:54:54.874Z,10.90
2019-05-26T06:57:28.067Z,9.50
2019-05-26T07:00:00.397Z,11.48
2019-05-26T07:02:32.422Z,10.88
2019-05-26T07:05:11.429Z,9.73
2019-05-26T07:07:43.794Z,11.00
2019-05-26T07:10:17.401Z,8.23
2019-05-26T07:12:49.758Z,12.53
2019-05-26T07:15:22.142Z,8.95
2019-05-26T07:17:57.506Z,10.38
2019-05-26T07:20:30.821Z,11.38
2019-05-26T07:23:03.338Z,6.78
2019-05-26T07:25:35.625Z,7.15
2019-05-26T07:28:08.097Z,7.70
2019-05-26T07:30:40.370Z,7.28
2019-05-26T07:33:12.595Z,5.95
2019-05-26T07:35:44.699Z,7.75
2019-05-26T07:38:17.072Z,8.65
2019-05-26T07:40:49.374Z,10.00
2019-05-26T07:43:21.972Z,6.70
2019-05-26T07:45:54.109Z,10.25
2019-05-26T07:48:26.654Z,7.53
2019-05-26T07:50:58.932Z,9.73
2019-05-26T07:53:31.203Z,6.55
2019-05-26T07:56:05.010Z,5.42
2019-05-26T07:58:37.251Z,7.55
2019-05-26T08:01:09.441Z,4.75
2019-05-26T08:03:41.913Z,10.20
2019-05-26T08:06:14.193Z,6.37
2019-05-26T08:08:46.139Z,7.50
2019-05-26T08:11:19.773Z,7.12
2019-05-26T08:13:52.121Z,5.37
2019-05-26T08:16:24.365Z,6.25
2019-05-26T08:18:57.353Z,3.50
2019-05-26T08:21:33.004Z,5.42
2019-05-26T08:24:05.670Z,4.03
2019-05-26T08:26:37.690Z,7.67
2019-05-26T08:29:09.738Z,8.25
2019-05-26T08:31:42.327Z,4.80
2019-05-26T08:34:14.604Z,8.28
2019-05-26T08:36:47.052Z,5.03
2019-05-26T08:39:19.411Z,4.60
2019-05-26T08:41:51.701Z,5.15
2019-05-26T08:44:23.865Z,5.28
2019-05-26T08:46:55.895Z,5.90
2019-05-26T08:49:29.928Z,7.58
2019-05-26T08:52:03.536Z,5.25
2019-05-26T08:54:35.685Z,6.80
2019-05-26T08:57:07.780Z,8.73
2019-05-26T08:59:42.295Z,7.20
2019-05-26T09:02:18.748Z,7.83
2019-05-26T09:04:51.247Z,10.72
2019-05-26T09:07:24.524Z,6.25
2019-05-26T09:09:59.325Z,7.50
2019-05-26T09:12:31.386Z,4.65
2019-05-26T09:15:05.736Z,5.25
2019-05-26T09:17:38.024Z,11.93
2019-05-26T09:20:12.955Z,5.40
2019-05-26T09:22:44.884Z,9.05
2019-05-26T09:25:20.148Z,14.23
2019-05-26T09:27:52.262Z,11.53
2019-05-26T09:30:26.593Z,9.45
2019-05-26T09:33:00.941Z,12.78
2019-05-26T09:35:33.433Z,8.48
2019-05-26T09:38:09.074Z,11.83
2019-05-26T09:40:41.832Z,11.80
2019-05-26T09:43:16.556Z,15.30
2019-05-26T09:48:25.537Z,10.30
2019-05-26T09:50:57.586Z,14.98
2019-05-26T09:53:29.662Z,10.65
2019-05-26T09:56:03.028Z,8.58
2019-05-26T09:58:36.131Z,9.80
2019-05-26T10:01:08.011Z,9.43
2019-05-26T10:03:41.375Z,11.68
2019-05-26T10:06:13.657Z,5.80
2019-05-26T10:08:46.852Z,6.80
2019-05-26T10:11:20.392Z,10.23
2019-05-26T10:13:53.345Z,6.25
2019-05-26T10:16:25.407Z,7.33
2019-05-26T10:19:11.224Z,7.30
2019-05-26T10:21:43.802Z,6.55
2019-05-26T10:24:15.938Z,5.92
2019-05-26T10:26:48.320Z,10.38
2019-05-26T10:29:20.557Z,5.83
2019-05-26T10:31:52.842Z,7.83
2019-05-26T10:34:24.962Z,6.50
2019-05-26T10:36:57.254Z,9.70
2019-05-26T10:39:29.560Z,10.32
2019-05-26T10:42:03.092Z,6.80
2019-05-26T10:44:35.543Z,9.28
2019-05-26T10:47:10.156Z,6.85
2019-05-26T10:49:42.819Z,8.23
2019-05-26T10:52:16.115Z,10.53
2019-05-26T10:54:48.469Z,6.95
2019-05-26T10:57:21.764Z,7.20
2019-05-26T10:59:53.956Z,10.88
2019-05-26T11:02:29.446Z,7.37
2019-05-26T11:05:02.301Z,7.20
2019-05-26T11:07:35.632Z,8.00
2019-05-26T11:10:09.718Z,10.25
2019-05-26T11:12:41.985Z,7.80
2019-05-26T11:15:17.054Z,9.30
2019-05-26T11:17:49.371Z,4.30
2019-05-26T11:20:23.416Z,5.53
2019-05-26T11:22:57.071Z,4.78
2019-05-26T11:25:29.451Z,4.60
2019-05-26T11:28:03.362Z,6.45
2019-05-26T11:30:36.133Z,6.22
2019-05-26T11:33:08.611Z,8.60
2019-05-26T11:35:41.194Z,9.38
2019-05-26T11:38:13.662Z,6.60
2019-05-26T11:40:47.180Z,7.15
2019-05-26T11:43:19.636Z,5.97
2019-05-26T11:45:53.569Z,6.83
2019-05-26T11:48:25.809Z,10.55
2019-05-26T11:50:58.085Z,8.18
2019-05-26T11:53:30.223Z,8.05
2019-05-26T11:56:02.619Z,7.83
2019-05-26T11:58:34.991Z,8.13
2019-05-26T12:01:09.081Z,8.55
2019-05-26T12:03:41.994Z,7.30
2019-05-26T12:06:15.480Z,7.33
2019-05-26T12:08:49.062Z,6.67
2019-05-26T12:11:21.767Z,5.05
2019-05-26T12:13:56.074Z,4.80
2019-05-26T12:16:29.051Z,6.90
2019-05-26T12:19:01.212Z,3.47
2019-05-26T12:21:33.711Z,4.42
2019-05-26T12:24:08.131Z,8.60
2019-05-26T12:26:40.384Z,8.45
2019-05-26T12:29:12.960Z,6.20
2019-05-26T12:31:45.455Z,8.60
2019-05-26T12:34:17.651Z,12.13
2019-05-26T12:36:50.097Z,8.55
2019-05-26T12:39:22.346Z,10.38
2019-05-26T12:41:54.912Z,7.67
2019-05-26T12:44:27.509Z,8.13
2019-05-26T12:47:01.629Z,8.35
2019-05-26T12:49:36.764Z,10.40
2019-05-26T12:52:09.206Z,13.60
2019-05-26T12:54:46.821Z,12.30
2019-05-26T12:57:21.771Z,10.58
2019-05-26T12:59:54.150Z,11.68
2019-05-26T13:02:26.088Z,8.45
2019-05-26T13:05:13.661Z,12.75
2019-05-26T13:07:47.823Z,12.85
2019-05-26T13:10:19.997Z,10.98
2019-05-26T13:12:52.472Z,8.20
2019-05-26T13:15:25.941Z,9.80
2019-05-26T13:17:59.948Z,9.60
2019-05-26T13:20:32.136Z,41.10
2019-05-26T13:23:05.591Z,7.22
2019-05-26T13:25:39.029Z,9.53
2019-05-26T13:28:11.940Z,16.65
2019-05-26T13:30:47.042Z,8.58
2019-05-26T13:33:20.574Z,12.00
2019-05-26T13:36:04.201Z,9.43
2019-05-26T13:38:36.280Z,10.18
2019-05-26T13:41:09.845Z,11.80
2019-05-26T13:43:44.954Z,10.72
2019-05-26T13:46:17.176Z,11.30
2019-05-26T13:48:49.490Z,9.58
2019-05-26T13:51:21.816Z,9.88
2019-05-26T13:53:54.195Z,10.93
2019-05-26T13:56:29.856Z,10.20
2019-05-26T13:59:02.415Z,11.28
2019-05-26T14:01:35.481Z,12.63
2019-05-26T14:04:09.110Z,13.75
2019-05-26T14:06:43.293Z,11.08
2019-05-26T14:09:15.037Z,10.00
2019-05-26T14:11:47.727Z,11.65
2019-05-26T14:14:21.459Z,9.43
2019-05-26T14:16:54.493Z,11.35
2019-05-26T14:19:28.075Z,12.63
2019-05-26T14:22:00.624Z,12.95
2019-05-26T14:24:32.893Z,11.57
2019-05-26T14:27:05.315Z,9.60
2019-05-26T14:29:37.355Z,12.40
2019-05-26T14:32:11.440Z,21.35
2019-05-26T14:34:44.652Z,14.73
2019-05-26T14:37:16.715Z,11.85
2019-05-26T14:39:50.232Z,10.85
2019-05-26T14:42:22.307Z,12.53
2019-05-26T14:44:55.403Z,13.15
2019-05-26T14:47:27.632Z,33.98
2019-05-26T14:50:00.367Z,31.10
2019-05-26T14:52:32.801Z,25.60
2019-05-26T14:55:06.265Z,22.55
2019-05-26T14:57:38.239Z,21.17
2019-05-26T15:00:10.414Z,21.97
2019-05-26T15:02:44.375Z,22.37
2019-05-26T15:05:16.361Z,22.10
2019-05-26T15:07:49.358Z,15.55
2019-05-26T15:10:22.829Z,12.37
2019-05-26T15:12:56.792Z,11.65
2019-05-26T15:15:30.596Z,11.48
2019-05-26T15:18:04.837Z,12.03
2019-05-26T15:20:37.142Z,15.93
2019-05-26T15:23:10.747Z,11.33
2019-05-26T15:25:47.100Z,11.95
2019-05-26T15:28:25.277Z,9.08
2019-05-26T15:30:59.871Z,7.90
2019-05-26T15:33:34.581Z,5.28
2019-05-26T15:36:07.607Z,7.67
2019-05-26T15:38:43.242Z,6.78
2019-05-26T15:41:14.390Z,11.30
2019-05-26T15:43:47.693Z,6.58
2019-05-26T15:46:25.061Z,7.22
2019-05-26T15:48:53.953Z,7.35
2019-05-26T15:51:26.363Z,7.33
2019-05-26T15:54:01.091Z,11.00
2019-05-26T15:56:34.443Z,8.48
2019-05-26T15:59:09.247Z,9.90
2019-05-26T16:01:44.275Z,9.58
2019-05-26T16:06:49.696Z,7.65
2019-05-26T16:09:21.957Z,13.30
2019-05-26T16:11:55.884Z,8.05
2019-05-26T16:14:27.987Z,10.15
2019-05-26T16:17:00.372Z,10.28
2019-05-26T16:19:34.439Z,7.58
2019-05-26T16:22:08.440Z,8.00
2019-05-26T16:24:42.051Z,10.35
2019-05-26T16:27:19.169Z,9.58
2019-05-26T16:29:48.058Z,9.75
2019-05-26T16:32:21.744Z,11.20
2019-05-26T16:34:59.058Z,13.13
2019-05-26T16:37:31.227Z,9.68
2019-05-26T16:40:05.101Z,10.00
2019-05-26T16:42:38.977Z,9.93
2019-05-26T16:45:10.987Z,17.05
2019-05-26T16:47:51.136Z,9.00
2019-05-26T16:50:36.416Z,9.15
2019-05-26T16:53:08.470Z,10.68
2019-05-26T16:55:40.568Z,7.50
2019-05-26T16:58:12.977Z,8.95
2019-05-26T17:00:45.720Z,7.92
2019-05-26T17:03:18.711Z,12.07
2019-05-26T17:06:05.276Z,15.58
2019-05-26T17:08:25.533Z,11.73
2019-05-26T17:10:57.521Z,12.63
2019-05-26T17:13:33.134Z,11.35
2019-05-26T17:16:08.187Z,17.37
2019-05-26T17:18:40.579Z,10.75
2019-05-26T17:21:17.634Z,13.25
2019-05-26T17:23:56.631Z,17.05
2019-05-26T17:26:32.985Z,13.15
2019-05-26T17:29:07.001Z,14.68
2019-05-26T17:31:39.679Z,12.73
2019-05-26T17:34:15.841Z,21.52
2019-05-26T17:36:50.348Z,16.17
2019-05-26T17:39:22.361Z,16.05
2019-05-26T17:41:55.549Z,17.87
2019-05-26T17:44:27.504Z,14.90
2019-05-26T17:47:00.440Z,14.68
2019-05-26T17:49:33.779Z,16.70
2019-05-26T17:52:09.012Z,12.80
2019-05-26T17:54:42.848Z,16.77
2019-05-26T17:57:20.133Z,14.93
2019-05-26T17:59:52.934Z,17.23
2019-05-26T18:02:26.418Z,17.70
2019-05-26T18:04:58.494Z,18.17
2019-05-26T18:07:32.350Z,16.15
2019-05-26T18:10:08.435Z,19.48
2019-05-26T18:12:42.700Z,17.92
2019-05-26T18:15:16.259Z,16.60
2019-05-26T18:17:49.765Z,19.40
2019-05-26T18:20:22.940Z,21.15
2019-05-26T18:22:55.066Z,17.80
2019-05-26T18:25:27.175Z,20.82
2019-05-26T18:27:59.295Z,22.02
2019-05-26T18:30:31.531Z,21.00
2019-05-26T18:33:04.299Z,22.37
2019-05-26T18:35:36.953Z,32.58
2019-05-26T18:38:10.211Z,29.52
2019-05-26T18:40:42.262Z,33.73
2019-05-26T18:43:16.055Z,55.50
2019-05-26T18:45:48.036Z,51.73
2019-05-26T18:48:20.094Z,60.90
2019-05-26T18:50:52.513Z,60.30
2019-05-26T18:53:29.691Z,66.45
2019-05-26T18:56:05.865Z,80.05
2019-05-26T18:58:42.178Z,78.70
2019-05-26T19:01:35.642Z,77.58
2019-05-26T19:04:11.672Z,72.08
2019-05-26T19:06:45.642Z,82.67
2019-05-26T19:09:23.963Z,59.93
2019-05-26T19:12:04.872Z,59.05
2019-05-26T19:14:41.774Z,60.38
2019-05-26T19:17:15.711Z,48.45
2019-05-26T19:19:52.488Z,42.75
2019-05-26T19:22:24.816Z,49.50
2019-05-26T19:24:56.937Z,42.73
2019-05-26T19:27:32.409Z,43.00
2019-05-26T19:30:09.608Z,45.55
2019-05-26T19:32:42.045Z,44.35
2019-05-26T19:35:21.308Z,43.60
2019-05-26T19:37:55.379Z,41.33
2019-05-26T19:40:28.655Z,41.58
2019-05-26T19:43:03.732Z,43.13
2019-05-26T19:45:37.373Z,52.10
2019-05-26T19:48:11.794Z,37.35
2019-05-26T19:50:43.958Z,41.02
2019-05-26T19:53:16.263Z,37.90
2019-05-26T19:55:48.782Z,38.35
2019-05-26T19:58:20.924Z,37.95
2019-05-26T20:00:53.073Z,39.15
2019-05-26T20:03:25.854Z,44.08
2019-05-26T20:05:57.971Z,38.17
2019-05-26T20:08:31.189Z,36.70
2019-05-26T20:11:03.488Z,31.93
2019-05-26T20:13:36.018Z,40.17
2019-05-26T20:16:08.212Z,29.57
2019-05-26T20:18:40.271Z,33.23
2019-05-26T20:21:12.843Z,27.90
2019-05-26T20:23:44.752Z,24.77
2019-05-26T20:26:18.174Z,29.80
2019-05-26T20:28:50.422Z,28.45
2019-05-26T20:31:22.527Z,25.52
2019-05-26T20:33:55.027Z,36.40
2019-05-26T20:36:27.295Z,26.85
2019-05-26T20:38:59.952Z,29.52
2019-05-26T20:41:32.211Z,30.35
2019-05-26T20:44:04.639Z,24.75
2019-05-26T20:46:37.338Z,31.25
2019-05-26T20:49:09.489Z,33.40
2019-05-26T20:51:43.326Z,31.48
2019-05-26T20:54:15.373Z,33.98
2019-05-26T20:56:50.039Z,31.40
2019-05-26T20:59:24.274Z,27.62
2019-05-26T21:01:56.796Z,31.80
2019-05-26T21:04:28.791Z,30.32
2019-05-26T21:07:01.384Z,28.60
2019-05-26T21:09:33.401Z,26.33
2019-05-26T21:12:07.037Z,25.35
2019-05-26T21:14:40.300Z,29.57
2019-05-26T21:17:12.446Z,24.27
2019-05-26T21:19:44.466Z,27.90
2019-05-26T21:22:17.473Z,25.43
2019-05-26T21:24:50.451Z,27.95
2019-05-26T21:27:22.618Z,24.05
2019-05-26T21:29:57.079Z,30.57
2019-05-26T21:32:31.353Z,35.68
2019-05-26T21:35:03.330Z,29.92
2019-05-26T21:37:35.339Z,33.30
2019-05-26T21:40:10.725Z,29.00
2019-05-26T21:42:42.806Z,35.88
2019-05-26T21:45:15.862Z,32.45
2019-05-26T21:47:48.593Z,28.57
2019-05-26T21:50:20.684Z,39.05
2019-05-26T21:52:52.823Z,30.10
2019-05-26T21:55:32.190Z,32.42
2019-05-26T21:58:13.011Z,39.45
2019-05-26T22:00:46.359Z,35.90
2019-05-26T22:03:19.936Z,30.20
2019-05-26T22:05:52.074Z,34.27
2019-05-26T22:08:24.198Z,34.48
2019-05-26T22:10:56.340Z,35.45
2019-05-26T22:13:29.222Z,30.05
2019-05-26T22:16:03.372Z,36.30
2019-05-26T22:18:39.238Z,37.93
2019-05-26T22:21:11.861Z,37.20
2019-05-26T22:23:44.024Z,35.68
2019-05-26T22:26:16.219Z,42.05
2019-05-26T22:28:51.341Z,44.38
2019-05-26T22:31:24.058Z,47.43
2019-05-26T22:33:56.147Z,47.15
2019-05-26T22:36:28.271Z,47.50
2019-05-26T22:39:00.423Z,47.08
2019-05-26T22:41:33.040Z,48.45
2019-05-26T22:44:05.217Z,44.58
2019-05-26T22:46:38.944Z,55.63
2019-05-26T22:49:11.186Z,48.80
2019-05-26T22:51:44.371Z,45.85
2019-05-26T22:54:16.387Z,43.17
2019-05-26T22:56:48.382Z,46.10
2019-05-26T22:59:20.523Z,40.00
2019-05-26T23:01:54.036Z,40.08
2019-05-26T23:04:26.144Z,38.05
2019-05-26T23:06:58.205Z,42.73
2019-05-26T23:09:30.266Z,44.67
2019-05-26T23:12:02.932Z,34.53
2019-05-26T23:14:41.803Z,32.95
2019-05-26T23:17:13.867Z,34.33
2019-05-26T23:19:47.037Z,31.82
2019-05-26T23:22:19.562Z,33.92
2019-05-26T23:24:53.495Z,28.62
2019-05-26T23:27:25.445Z,32.08
2019-05-26T23:29:58.139Z,26.60
2019-05-26T23:32:30.345Z,26.95
2019-05-26T23:35:02.871Z,26.82
2019-05-26T23:37:34.992Z,23.27
2019-05-26T23:40:07.362Z,19.40
2019-05-26T23:42:39.472Z,23.25
2019-05-26T23:45:11.568Z,17.23
2019-05-26T23:47:43.968Z,17.92
2019-05-26T23:50:15.928Z,21.05
2019-05-26T23:52:50.725Z,20.57
2019-05-26T23:55:22.783Z,20.70
2019-05-26T23:57:55.397Z,17.23
